PWSweather.com
Personal Weather Stations
Station Observations

MakarauRodneyNZ

Lat: -36.52421, Lon: 174.47572

Elevation: 606

Station Type: Davis VP2

http://kaiparaweather.dynu.net/index.php

High Low Average
Temperature 60.2°F15.7°C 51.7°F10.9°C 54.7°F12.6°C
Dew Point 51.0°F10.6°C 43.3°F6.3°C 46.7°F8.2°C
Winds 27.6 mph 44.4 kmh 10.4 mph 16.7 kmh 18.0 mph SW29.0 kmh SW
Wind Gusts 39.1 mph62.9 kmh 11.5 mph18.5 kmh 25.0 mph40.2 kmh
Humidity 84% 67% 75%
Pressure 30.09 in1019.0 mb 29.82 in1009.8 mb -
Precipitation 0.13 in3.3 mm - -
Hour Temp Dew Point Humidity Winds Wind Gusts Pressure Precip Precip Rate Daily Precip Total
12:00 AM 54.9°F12.7°C 51.1°F10.6°C 87% 5.8 mph W9.3 kmh W 12.7 mph20.4 kmh 29.87 in1011.5 mb - 0.00 in0.0 mm 0.00 in0.0 mm
12:10 AM 54.9°F12.7°C 50.5°F10.3°C 85% 6.9 mph W11.1 kmh W 10.4 mph16.7 kmh 29.86 in1011.2 mb - 0.00 in0.0 mm 0.00 in0.0 mm
12:20 AM 55.2°F12.9°C 49.8°F9.9°C 82% 9.2 mph WSW14.8 kmh WSW 11.5 mph18.5 kmh 29.86 in1011.2 mb - 0.00 in0.0 mm 0.00 in0.0 mm
12:30 AM 55.2°F12.9°C 49.5°F9.7°C 81% 4.6 mph WSW7.4 kmh WSW 11.5 mph18.5 kmh 29.86 in1011.2 mb - 0.00 in0.0 mm 0.00 in0.0 mm
12:40 AM 55.2°F12.9°C 48.8°F9.3°C 79% 13.8 mph NW22.2 kmh NW 18.4 mph29.6 kmh 29.86 in1011.2 mb - 0.00 in0.0 mm 0.00 in0.0 mm
12:50 AM 55.4°F13.0°C 49.0°F9.4°C 79% 8.1 mph WSW13.0 kmh WSW 13.8 mph22.2 kmh 29.86 in1011.2 mb - 0.00 in0.0 mm 0.00 in0.0 mm
01:00 AM 55.2°F12.9°C 47.8°F8.8°C 76% 15.0 mph NW24.1 kmh NW 18.4 mph29.6 kmh 29.86 in1011.2 mb - 0.00 in0.0 mm 0.00 in0.0 mm
01:10 AM 55.1°F12.8°C 48.4°F9.1°C 78% 9.2 mph WNW14.8 kmh WNW 15.0 mph24.1 kmh 29.85 in1010.8 mb - 0.00 in0.0 mm 0.00 in0.0 mm
01:20 AM 55.1°F12.8°C 48.7°F9.3°C 79% 9.2 mph NW14.8 kmh NW 13.8 mph22.2 kmh 29.85 in1010.8 mb - 0.00 in0.0 mm 0.00 in0.0 mm
01:30 AM 55.2°F12.9°C 48.8°F9.3°C 79% 8.1 mph WSW13.0 kmh WSW 19.6 mph31.5 kmh 29.85 in1010.8 mb - 0.00 in0.0 mm 0.00 in0.0 mm
01:40 AM 55.1°F12.8°C 48.4°F9.1°C 78% 13.8 mph NW22.2 kmh NW 19.6 mph31.5 kmh 29.85 in1010.8 mb - 0.00 in0.0 mm 0.00 in0.0 mm
01:50 AM 55.3°F12.9°C 48.2°F9.0°C 77% 11.5 mph WNW18.5 kmh WNW 17.3 mph27.8 kmh 29.84 in1010.5 mb - 0.00 in0.0 mm 0.00 in0.0 mm
02:00 AM 55.5°F13.1°C 46.6°F8.1°C 72% 11.5 mph NW18.5 kmh NW 12.7 mph20.4 kmh 29.84 in1010.5 mb - 0.00 in0.0 mm 0.00 in0.0 mm
02:10 AM 55.6°F13.1°C 46.7°F8.2°C 72% 9.2 mph WNW14.8 kmh WNW 13.8 mph22.2 kmh 29.84 in1010.5 mb - 0.00 in0.0 mm 0.00 in0.0 mm
02:20 AM 55.8°F13.2°C 47.6°F8.7°C 74% 8.1 mph W13.0 kmh W 11.5 mph18.5 kmh 29.84 in1010.5 mb - 0.00 in0.0 mm 0.00 in0.0 mm
02:30 AM 55.5°F13.1°C 48.0°F8.9°C 76% 10.4 mph WNW16.7 kmh WNW 15.0 mph24.1 kmh 29.84 in1010.5 mb - 0.00 in0.0 mm 0.00 in0.0 mm
02:40 AM 55.6°F13.1°C 48.5°F9.2°C 77% 8.1 mph WNW13.0 kmh WNW 11.5 mph18.5 kmh 29.84 in1010.5 mb - 0.00 in0.0 mm 0.00 in0.0 mm
02:50 AM 55.6°F13.1°C 48.8°F9.3°C 78% 13.8 mph NW22.2 kmh NW 18.4 mph29.6 kmh 29.84 in1010.5 mb - 0.00 in0.0 mm 0.00 in0.0 mm
03:00 AM 55.5°F13.1°C 48.4°F9.1°C 77% 10.4 mph W16.7 kmh W 18.4 mph29.6 kmh 29.83 in1010.2 mb - 0.00 in0.0 mm 0.00 in0.0 mm
03:10 AM 55.6°F13.1°C 47.8°F8.8°C 75% 9.2 mph NW14.8 kmh NW 13.8 mph22.2 kmh 29.83 in1010.2 mb - 0.00 in0.0 mm 0.00 in0.0 mm
03:20 AM 55.6°F13.1°C 48.1°F8.9°C 76% 12.7 mph NNW20.4 kmh NNW 18.4 mph29.6 kmh 29.84 in1010.5 mb - 0.00 in0.0 mm 0.00 in0.0 mm
03:30 AM 55.4°F13.0°C 48.0°F8.9°C 76% 11.5 mph W18.5 kmh W 17.3 mph27.8 kmh 29.83 in1010.2 mb - 0.00 in0.0 mm 0.00 in0.0 mm
03:40 AM 55.5°F13.1°C 48.1°F8.9°C 76% 10.4 mph NW16.7 kmh NW 18.4 mph29.6 kmh 29.83 in1010.2 mb - 0.00 in0.0 mm 0.00 in0.0 mm
03:50 AM 55.9°F13.3°C 48.4°F9.1°C 76% 11.5 mph W18.5 kmh W 19.6 mph31.5 kmh 29.82 in1009.8 mb - 0.00 in0.0 mm 0.00 in0.0 mm
04:00 AM 55.9°F13.3°C 48.8°F9.3°C 77% 11.5 mph WNW18.5 kmh WNW 17.3 mph27.8 kmh 29.82 in1009.8 mb - 0.00 in0.0 mm 0.00 in0.0 mm
04:10 AM 55.9°F13.3°C 48.4°F9.1°C 76% 9.2 mph W14.8 kmh W 12.7 mph20.4 kmh 29.82 in1009.8 mb - 0.00 in0.0 mm 0.00 in0.0 mm
04:20 AM 55.9°F13.3°C 48.8°F9.3°C 77% 10.4 mph WNW16.7 kmh WNW 13.8 mph22.2 kmh 29.82 in1009.8 mb - 0.00 in0.0 mm 0.00 in0.0 mm
04:30 AM 56.0°F13.3°C 48.9°F9.4°C 77% 9.2 mph W14.8 kmh W 13.8 mph22.2 kmh 29.82 in1009.8 mb - 0.00 in0.0 mm 0.00 in0.0 mm
04:40 AM 56.2°F13.4°C 49.4°F9.7°C 78% 11.5 mph WNW18.5 kmh WNW 15.0 mph24.1 kmh 29.82 in1009.8 mb - 0.00 in0.0 mm 0.00 in0.0 mm
04:50 AM 56.2°F13.4°C 49.4°F9.7°C 78% 11.5 mph WNW18.5 kmh WNW 13.8 mph22.2 kmh 29.82 in1009.8 mb - 0.00 in0.0 mm 0.00 in0.0 mm
05:00 AM 56.3°F13.5°C 49.5°F9.7°C 78% 6.9 mph W11.1 kmh W 10.4 mph16.7 kmh 29.82 in1009.8 mb - 0.00 in0.0 mm 0.00 in0.0 mm
05:10 AM 56.3°F13.5°C 49.9°F9.9°C 79% 8.1 mph NW13.0 kmh NW 10.4 mph16.7 kmh 29.82 in1009.8 mb - 0.00 in0.0 mm 0.00 in0.0 mm
05:20 AM 56.3°F13.5°C 49.9°F9.9°C 79% 8.1 mph NW13.0 kmh NW 15.0 mph24.1 kmh 29.81 in1009.5 mb - 0.00 in0.0 mm 0.00 in0.0 mm
05:30 AM 56.4°F13.6°C 50.3°F10.2°C 80% 6.9 mph WSW11.1 kmh WSW 10.4 mph16.7 kmh 29.81 in1009.5 mb - 0.00 in0.0 mm 0.00 in0.0 mm
05:40 AM 56.2°F13.4°C 50.5°F10.3°C 81% 8.1 mph WNW13.0 kmh WNW 15.0 mph24.1 kmh 29.81 in1009.5 mb - 0.00 in0.0 mm 0.00 in0.0 mm
05:50 AM 55.9°F13.3°C 50.8°F10.4°C 83% 6.9 mph WSW11.1 kmh WSW 11.5 mph18.5 kmh 29.81 in1009.5 mb - 0.00 in0.0 mm 0.00 in0.0 mm
06:00 AM 56.1°F13.4°C 51.3°F10.7°C 84% 9.2 mph NW14.8 kmh NW 17.3 mph27.8 kmh 29.81 in1009.5 mb - 0.00 in0.0 mm 0.00 in0.0 mm
06:10 AM 56.3°F13.5°C 51.6°F10.9°C 84% 8.1 mph NNW13.0 kmh NNW 11.5 mph18.5 kmh 29.81 in1009.5 mb - 0.00 in0.0 mm 0.00 in0.0 mm
06:20 AM 56.7°F13.7°C 51.9°F11.1°C 84% 8.1 mph WSW13.0 kmh WSW 10.4 mph16.7 kmh 29.81 in1009.5 mb - 0.00 in0.0 mm 0.00 in0.0 mm
06:30 AM 57.0°F13.9°C 52.5°F11.4°C 85% 10.4 mph WNW16.7 kmh WNW 16.1 mph25.9 kmh 29.81 in1009.5 mb - 0.00 in0.0 mm 0.00 in0.0 mm
06:40 AM 57.0°F13.9°C 52.9°F11.6°C 86% 9.2 mph WNW14.8 kmh WNW 15.0 mph24.1 kmh 29.81 in1009.5 mb - 0.00 in0.0 mm 0.00 in0.0 mm
06:50 AM 57.1°F13.9°C 53.3°F11.8°C 87% 9.2 mph NW14.8 kmh NW 13.8 mph22.2 kmh 29.80 in1009.1 mb - 0.00 in0.0 mm 0.00 in0.0 mm
07:00 AM 57.3°F14.1°C 53.8°F12.1°C 88% 8.1 mph W13.0 kmh W 13.8 mph22.2 kmh 29.80 in1009.1 mb - 0.00 in0.0 mm 0.00 in0.0 mm
07:10 AM 57.7°F14.3°C 54.2°F12.3°C 88% 8.1 mph WNW13.0 kmh WNW 16.1 mph25.9 kmh 29.80 in1009.1 mb - 0.00 in0.0 mm 0.00 in0.0 mm
07:20 AM 58.1°F14.5°C 54.6°F12.6°C 88% 11.5 mph NW18.5 kmh NW 18.4 mph29.6 kmh 29.80 in1009.1 mb - 0.00 in0.0 mm 0.00 in0.0 mm
07:30 AM 59.0°F15.0°C 54.8°F12.7°C 86% 10.4 mph WNW16.7 kmh WNW 15.0 mph24.1 kmh 29.80 in1009.1 mb - 0.00 in0.0 mm 0.00 in0.0 mm
07:40 AM 57.9°F14.4°C 53.1°F11.7°C 84% 11.5 mph WNW18.5 kmh WNW 21.9 mph35.2 kmh 29.81 in1009.5 mb - 0.09 in2.3 mm 0.09 in2.3 mm
07:50 AM 55.1°F12.8°C 51.3°F10.7°C 87% 8.1 mph WSW13.0 kmh WSW 17.3 mph27.8 kmh 29.81 in1009.5 mb - 0.01 in0.3 mm 0.09 in2.3 mm
08:00 AM 55.9°F13.3°C 53.0°F11.7°C 90% 5.8 mph WSW9.3 kmh WSW 9.2 mph14.8 kmh 29.81 in1009.5 mb - 0.00 in0.0 mm 0.09 in2.3 mm
08:10 AM 57.8°F14.3°C 54.8°F12.7°C 90% 8.1 mph WSW13.0 kmh WSW 11.5 mph18.5 kmh 29.81 in1009.5 mb - 0.00 in0.0 mm 0.09 in2.3 mm
08:20 AM 58.7°F14.8°C 55.4°F13.0°C 89% 10.4 mph NW16.7 kmh NW 25.3 mph40.7 kmh 29.80 in1009.1 mb - 0.00 in0.0 mm 0.09 in2.3 mm
08:30 AM 58.3°F14.6°C 54.4°F12.4°C 87% 9.2 mph WSW14.8 kmh WSW 16.1 mph25.9 kmh 29.80 in1009.1 mb - 0.00 in0.0 mm 0.09 in2.3 mm
08:40 AM 56.9°F13.8°C 53.0°F11.7°C 87% 13.8 mph WSW22.2 kmh WSW 24.2 mph38.9 kmh 29.81 in1009.5 mb - 0.02 in0.5 mm 0.11 in2.8 mm
08:50 AM 54.6°F12.6°C 51.1°F10.6°C 88% 10.4 mph WSW16.7 kmh WSW 17.3 mph27.8 kmh 29.81 in1009.5 mb - 0.01 in0.3 mm 0.12 in3.0 mm
09:00 AM 54.8°F12.7°C 51.7°F10.9°C 89% 8.1 mph WSW13.0 kmh WSW 12.7 mph20.4 kmh 29.81 in1009.5 mb - 0.00 in0.0 mm 0.12 in3.0 mm
09:10 AM 55.9°F13.3°C 53.0°F11.7°C 90% 6.9 mph W11.1 kmh W 12.7 mph20.4 kmh 29.81 in1009.5 mb - 0.00 in0.0 mm 0.12 in3.0 mm
09:20 AM 55.2°F12.9°C 51.7°F10.9°C 88% 9.2 mph WSW14.8 kmh WSW 12.7 mph20.4 kmh 29.82 in1009.8 mb - 0.00 in0.0 mm 0.12 in3.0 mm
09:30 AM 54.7°F12.6°C 51.6°F10.9°C 89% 8.1 mph WSW13.0 kmh WSW 12.7 mph20.4 kmh 29.82 in1009.8 mb - 0.00 in0.0 mm 0.12 in3.0 mm
09:40 AM 55.7°F13.2°C 52.5°F11.4°C 89% 6.9 mph WSW11.1 kmh WSW 9.2 mph14.8 kmh 29.81 in1009.5 mb - 0.00 in0.0 mm 0.12 in3.0 mm
09:50 AM 57.0°F13.9°C 53.5°F11.9°C 88% 12.7 mph WSW20.4 kmh WSW 15.0 mph24.1 kmh 29.81 in1009.5 mb - 0.00 in0.0 mm 0.12 in3.0 mm
10:00 AM 57.7°F14.3°C 52.2°F11.2°C 82% 13.8 mph WSW22.2 kmh WSW 21.9 mph35.2 kmh 29.81 in1009.5 mb - 0.00 in0.0 mm 0.12 in3.0 mm
10:10 AM 58.2°F14.6°C 51.3°F10.7°C 78% 12.7 mph WSW20.4 kmh WSW 25.3 mph40.7 kmh 29.82 in1009.8 mb - 0.00 in0.0 mm 0.12 in3.0 mm
10:20 AM 57.1°F13.9°C 50.6°F10.3°C 79% 10.4 mph WSW16.7 kmh WSW 13.8 mph22.2 kmh 29.82 in1009.8 mb - 0.00 in0.0 mm 0.12 in3.0 mm
10:30 AM 57.7°F14.3°C 50.9°F10.5°C 78% 15.0 mph WSW24.1 kmh WSW 20.7 mph33.3 kmh 29.82 in1009.8 mb - 0.00 in0.0 mm 0.12 in3.0 mm
10:40 AM 57.7°F14.3°C 50.1°F10.1°C 76% 17.3 mph WSW27.8 kmh WSW 25.3 mph40.7 kmh 29.82 in1009.8 mb - 0.00 in0.0 mm 0.12 in3.0 mm
10:50 AM 56.8°F13.8°C 49.3°F9.6°C 76% 16.1 mph WSW25.9 kmh WSW 31.1 mph50.1 kmh 29.82 in1009.8 mb - 0.00 in0.0 mm 0.12 in3.0 mm
11:00 AM 56.9°F13.8°C 49.5°F9.7°C 76% 20.7 mph SW33.3 kmh SW 21.9 mph35.2 kmh 29.82 in1009.8 mb - 0.00 in0.0 mm 0.12 in3.0 mm
11:10 AM 56.4°F13.6°C 50.0°F10.0°C 79% 11.5 mph WSW18.5 kmh WSW 18.4 mph29.6 kmh 29.82 in1009.8 mb - 0.00 in0.0 mm 0.12 in3.0 mm
11:20 AM 57.8°F14.3°C 50.6°F10.3°C 77% 25.3 mph W40.7 kmh W 36.8 mph59.2 kmh 29.82 in1009.8 mb - 0.00 in0.0 mm 0.12 in3.0 mm
11:30 AM 59.0°F15.0°C 50.0°F10.0°C 72% 16.1 mph SW25.9 kmh SW 26.5 mph42.6 kmh 29.81 in1009.5 mb - 0.00 in0.0 mm 0.12 in3.0 mm
11:40 AM 58.1°F14.5°C 50.5°F10.3°C 76% 20.7 mph WSW33.3 kmh WSW 33.4 mph53.8 kmh 29.82 in1009.8 mb - 0.00 in0.0 mm 0.12 in3.0 mm
11:50 AM 58.4°F14.7°C 49.4°F9.7°C 72% 16.1 mph SW25.9 kmh SW 27.6 mph44.4 kmh 29.82 in1009.8 mb - 0.00 in0.0 mm 0.12 in3.0 mm
12:00 PM 59.7°F15.4°C 50.6°F10.3°C 72% 13.8 mph WSW22.2 kmh WSW 19.6 mph31.5 kmh 29.82 in1009.8 mb - 0.00 in0.0 mm 0.12 in3.0 mm
12:10 PM 58.8°F14.9°C 49.8°F9.9°C 72% 16.1 mph WSW25.9 kmh WSW 21.9 mph35.2 kmh 29.82 in1009.8 mb - 0.00 in0.0 mm 0.12 in3.0 mm
12:20 PM 55.8°F13.2°C 50.1°F10.1°C 81% 12.7 mph WSW20.4 kmh WSW 19.6 mph31.5 kmh 29.82 in1009.8 mb - 0.00 in0.0 mm 0.12 in3.0 mm
12:30 PM 56.6°F13.7°C 49.4°F9.7°C 77% 16.1 mph WSW25.9 kmh WSW 21.9 mph35.2 kmh 29.82 in1009.8 mb - 0.00 in0.0 mm 0.12 in3.0 mm
12:40 PM 53.8°F12.1°C 49.1°F9.5°C 84% 16.1 mph WSW25.9 kmh WSW 33.4 mph53.8 kmh 29.82 in1009.8 mb - 0.01 in0.3 mm 0.13 in3.3 mm
12:50 PM 57.4°F14.1°C 50.3°F10.2°C 77% 16.1 mph WSW25.9 kmh WSW 24.2 mph38.9 kmh 29.82 in1009.8 mb - 0.00 in0.0 mm 0.13 in3.3 mm
01:00 PM 58.7°F14.8°C 49.6°F9.8°C 72% 15.0 mph WSW24.1 kmh WSW 23.0 mph37.0 kmh 29.82 in1009.8 mb - 0.00 in0.0 mm 0.13 in3.3 mm
01:10 PM 59.2°F15.1°C 49.4°F9.7°C 70% 18.4 mph WSW29.6 kmh WSW 29.9 mph48.1 kmh 29.82 in1009.8 mb - 0.00 in0.0 mm 0.13 in3.3 mm
01:20 PM 59.8°F15.4°C 48.8°F9.3°C 67% 17.3 mph WSW27.8 kmh WSW 21.9 mph35.2 kmh 29.82 in1009.8 mb - 0.00 in0.0 mm 0.13 in3.3 mm
01:30 PM 60.2°F15.7°C 49.6°F9.8°C 68% 16.1 mph WSW25.9 kmh WSW 26.5 mph42.6 kmh 29.82 in1009.8 mb - 0.00 in0.0 mm 0.13 in3.3 mm
01:40 PM 59.8°F15.4°C 49.2°F9.6°C 68% 16.1 mph WSW25.9 kmh WSW 21.9 mph35.2 kmh 29.82 in1009.8 mb - 0.00 in0.0 mm 0.13 in3.3 mm
01:50 PM 58.0°F14.4°C 48.6°F9.2°C 71% 24.2 mph SW38.9 kmh SW 39.1 mph62.9 kmh 29.82 in1009.8 mb - 0.00 in0.0 mm 0.13 in3.3 mm
02:00 PM 58.4°F14.7°C 48.3°F9.1°C 69% 19.6 mph WSW31.5 kmh WSW 29.9 mph48.1 kmh 29.82 in1009.8 mb - 0.00 in0.0 mm 0.13 in3.3 mm
02:10 PM 57.8°F14.3°C 47.3°F8.5°C 68% 15.0 mph WSW24.1 kmh WSW 23.0 mph37.0 kmh 29.82 in1009.8 mb - 0.00 in0.0 mm 0.13 in3.3 mm
02:20 PM 57.7°F14.3°C 47.2°F8.4°C 68% 16.1 mph WSW25.9 kmh WSW 23.0 mph37.0 kmh 29.82 in1009.8 mb - 0.00 in0.0 mm 0.13 in3.3 mm
02:30 PM 57.1°F13.9°C 46.6°F8.1°C 68% 16.1 mph WSW25.9 kmh WSW 27.6 mph44.4 kmh 29.82 in1009.8 mb - 0.00 in0.0 mm 0.13 in3.3 mm
02:40 PM 57.3°F14.1°C 48.0°F8.9°C 71% 15.0 mph WSW24.1 kmh WSW 17.3 mph27.8 kmh 29.82 in1009.8 mb - 0.00 in0.0 mm 0.13 in3.3 mm
02:50 PM 56.3°F13.5°C 48.1°F8.9°C 74% 19.6 mph WSW31.5 kmh WSW 27.6 mph44.4 kmh 29.82 in1009.8 mb - 0.00 in0.0 mm 0.13 in3.3 mm
03:00 PM 57.6°F14.2°C 47.9°F8.8°C 70% 17.3 mph WSW27.8 kmh WSW 27.6 mph44.4 kmh 29.82 in1009.8 mb - 0.00 in0.0 mm 0.13 in3.3 mm
03:20 PM 55.0°F12.8°C 49.0°F9.4°C 80% 12.7 mph WSW20.4 kmh WSW 19.6 mph31.5 kmh 29.82 in1009.8 mb - 0.00 in0.0 mm 0.13 in3.3 mm
03:30 PM 55.6°F13.1°C 50.5°F10.3°C 83% 11.5 mph WSW18.5 kmh WSW 11.5 mph18.5 kmh 29.82 in1009.8 mb - 0.00 in0.0 mm 0.13 in3.3 mm
03:40 PM 57.1°F13.9°C 51.0°F10.6°C 80% 13.8 mph WSW22.2 kmh WSW 26.5 mph42.6 kmh 29.82 in1009.8 mb - 0.00 in0.0 mm 0.13 in3.3 mm
03:50 PM 56.8°F13.8°C 49.3°F9.6°C 76% 16.1 mph SW25.9 kmh SW 26.5 mph42.6 kmh 29.83 in1010.2 mb - 0.00 in0.0 mm 0.13 in3.3 mm
04:00 PM 56.1°F13.4°C 47.9°F8.8°C 74% 21.9 mph SW35.2 kmh SW 33.4 mph53.8 kmh 29.84 in1010.5 mb - 0.00 in0.0 mm 0.13 in3.3 mm
04:10 PM 55.7°F13.2°C 47.6°F8.7°C 74% 24.2 mph SW38.9 kmh SW 35.7 mph57.5 kmh 29.84 in1010.5 mb - 0.00 in0.0 mm 0.13 in3.3 mm
04:20 PM 55.8°F13.2°C 47.7°F8.7°C 74% 24.2 mph SW38.9 kmh SW 29.9 mph48.1 kmh 29.85 in1010.8 mb - 0.00 in0.0 mm 0.13 in3.3 mm
04:30 PM 56.5°F13.6°C 48.7°F9.3°C 75% 17.3 mph SW27.8 kmh SW 26.5 mph42.6 kmh 29.85 in1010.8 mb - 0.00 in0.0 mm 0.13 in3.3 mm
04:40 PM 55.8°F13.2°C 48.3°F9.1°C 76% 16.1 mph SW25.9 kmh SW 24.2 mph38.9 kmh 29.86 in1011.2 mb - 0.00 in0.0 mm 0.13 in3.3 mm
04:50 PM 53.1°F11.7°C 48.1°F8.9°C 83% 20.7 mph SW33.3 kmh SW 35.7 mph57.5 kmh 29.87 in1011.5 mb - 0.00 in0.0 mm 0.13 in3.3 mm
05:00 PM 54.3°F12.4°C 46.9°F8.3°C 76% 23.0 mph SW37.0 kmh SW 24.2 mph38.9 kmh 29.87 in1011.5 mb - 0.00 in0.0 mm 0.13 in3.3 mm
05:10 PM 54.9°F12.7°C 46.0°F7.8°C 72% 27.6 mph SW44.4 kmh SW 32.2 mph51.8 kmh 29.87 in1011.5 mb - 0.00 in0.0 mm 0.13 in3.3 mm
05:20 PM 53.8°F12.1°C 47.1°F8.4°C 78% 24.2 mph SW38.9 kmh SW 27.6 mph44.4 kmh 29.88 in1011.9 mb - 0.00 in0.0 mm 0.13 in3.3 mm
05:30 PM 54.5°F12.5°C 47.4°F8.6°C 77% 18.4 mph WSW29.6 kmh WSW 29.9 mph48.1 kmh 29.89 in1012.2 mb - 0.00 in0.0 mm 0.13 in3.3 mm
05:40 PM 54.1°F12.3°C 46.4°F8.0°C 75% 18.4 mph SW29.6 kmh SW 20.7 mph33.3 kmh 29.90 in1012.5 mb - 0.00 in0.0 mm 0.13 in3.3 mm
05:50 PM 54.0°F12.2°C 46.3°F7.9°C 75% 19.6 mph SW31.5 kmh SW 23.0 mph37.0 kmh 29.90 in1012.5 mb - 0.00 in0.0 mm 0.13 in3.3 mm
06:00 PM 53.7°F12.1°C 46.7°F8.2°C 77% 26.5 mph SW42.6 kmh SW 28.8 mph46.3 kmh 29.90 in1012.5 mb - 0.00 in0.0 mm 0.13 in3.3 mm
06:10 PM 53.4°F11.9°C 46.0°F7.8°C 76% 21.9 mph WSW35.2 kmh WSW 35.7 mph57.5 kmh 29.91 in1012.9 mb - 0.00 in0.0 mm 0.13 in3.3 mm
06:20 PM 53.3°F11.8°C 44.9°F7.2°C 73% 20.7 mph SW33.3 kmh SW 31.1 mph50.1 kmh 29.92 in1013.2 mb - 0.00 in0.0 mm 0.13 in3.3 mm
06:30 PM 53.1°F11.7°C 45.4°F7.4°C 75% 18.4 mph SW29.6 kmh SW 28.8 mph46.3 kmh 29.93 in1013.5 mb - 0.00 in0.0 mm 0.13 in3.3 mm
06:40 PM 52.8°F11.6°C 44.0°F6.7°C 72% 20.7 mph WSW33.3 kmh WSW 34.5 mph55.5 kmh 29.93 in1013.5 mb - 0.00 in0.0 mm 0.13 in3.3 mm
06:50 PM 52.8°F11.6°C 44.0°F6.7°C 72% 23.0 mph SW37.0 kmh SW 29.9 mph48.1 kmh 29.94 in1013.9 mb - 0.00 in0.0 mm 0.13 in3.3 mm
07:00 PM 53.0°F11.7°C 43.5°F6.4°C 70% 27.6 mph WSW44.4 kmh WSW 35.7 mph57.5 kmh 29.94 in1013.9 mb - 0.00 in0.0 mm 0.13 in3.3 mm
07:10 PM 53.0°F11.7°C 43.9°F6.6°C 71% 21.9 mph SW35.2 kmh SW 29.9 mph48.1 kmh 29.95 in1014.2 mb - 0.00 in0.0 mm 0.13 in3.3 mm
07:20 PM 52.9°F11.6°C 44.1°F6.7°C 72% 18.4 mph SW29.6 kmh SW 27.6 mph44.4 kmh 29.96 in1014.6 mb - 0.00 in0.0 mm 0.13 in3.3 mm
07:30 PM 53.3°F11.8°C 44.1°F6.7°C 71% 21.9 mph SW35.2 kmh SW 28.8 mph46.3 kmh 29.97 in1014.9 mb - 0.00 in0.0 mm 0.13 in3.3 mm
07:40 PM 53.6°F12.0°C 43.3°F6.3°C 68% 21.9 mph SW35.2 kmh SW 25.3 mph40.7 kmh 29.98 in1015.2 mb - 0.00 in0.0 mm 0.13 in3.3 mm
07:50 PM 53.7°F12.1°C 43.4°F6.3°C 68% 16.1 mph SW25.9 kmh SW 20.7 mph33.3 kmh 29.99 in1015.6 mb - 0.00 in0.0 mm 0.13 in3.3 mm
08:00 PM 53.7°F12.1°C 44.1°F6.7°C 70% 20.7 mph WSW33.3 kmh WSW 23.0 mph37.0 kmh 30.00 in1015.9 mb - 0.00 in0.0 mm 0.13 in3.3 mm
08:10 PM 53.6°F12.0°C 44.1°F6.7°C 70% 16.1 mph WSW25.9 kmh WSW 19.6 mph31.5 kmh 30.01 in1016.3 mb - 0.00 in0.0 mm 0.13 in3.3 mm
08:20 PM 53.5°F11.9°C 44.3°F6.8°C 71% 17.3 mph SW27.8 kmh SW 21.9 mph35.2 kmh 30.02 in1016.6 mb - 0.00 in0.0 mm 0.13 in3.3 mm
08:30 PM 52.8°F11.6°C 45.1°F7.3°C 75% 19.6 mph SW31.5 kmh SW 24.2 mph38.9 kmh 30.02 in1016.6 mb - 0.01 in0.3 mm 0.13 in3.3 mm
08:40 PM 52.8°F11.6°C 44.7°F7.1°C 74% 17.3 mph SW27.8 kmh SW 20.7 mph33.3 kmh 30.03 in1016.9 mb - 0.00 in0.0 mm 0.13 in3.3 mm
08:50 PM 53.2°F11.8°C 44.0°F6.7°C 71% 21.9 mph SW35.2 kmh SW 24.2 mph38.9 kmh 30.03 in1016.9 mb - 0.00 in0.0 mm 0.13 in3.3 mm
09:00 PM 53.0°F11.7°C 44.6°F7.0°C 73% 17.3 mph SW27.8 kmh SW 23.0 mph37.0 kmh 30.04 in1017.3 mb - 0.00 in0.0 mm 0.13 in3.3 mm
09:10 PM 52.9°F11.6°C 45.2°F7.3°C 75% 15.0 mph SW24.1 kmh SW 19.6 mph31.5 kmh 30.04 in1017.3 mb - 0.00 in0.0 mm 0.13 in3.3 mm
09:20 PM 53.0°F11.7°C 45.3°F7.4°C 75% 17.3 mph SW27.8 kmh SW 24.2 mph38.9 kmh 30.05 in1017.6 mb - 0.00 in0.0 mm 0.13 in3.3 mm
09:30 PM 52.8°F11.6°C 45.8°F7.7°C 77% 20.7 mph SW33.3 kmh SW 24.2 mph38.9 kmh 30.05 in1017.6 mb - 0.00 in0.0 mm 0.13 in3.3 mm
09:40 PM 52.2°F11.2°C 44.9°F7.2°C 76% 15.0 mph SW24.1 kmh SW 19.6 mph31.5 kmh 30.06 in1017.9 mb - 0.00 in0.0 mm 0.13 in3.3 mm
09:50 PM 52.0°F11.1°C 44.4°F6.9°C 75% 15.0 mph SW24.1 kmh SW 19.6 mph31.5 kmh 30.07 in1018.3 mb - 0.00 in0.0 mm 0.13 in3.3 mm
10:00 PM 52.2°F11.2°C 44.5°F6.9°C 75% 13.8 mph SW22.2 kmh SW 17.3 mph27.8 kmh 30.07 in1018.3 mb - 0.00 in0.0 mm 0.13 in3.3 mm
10:10 PM 52.4°F11.3°C 45.7°F7.6°C 78% 16.1 mph SW25.9 kmh SW 19.6 mph31.5 kmh 30.07 in1018.3 mb - 0.00 in0.0 mm 0.13 in3.3 mm
10:20 PM 52.1°F11.2°C 45.8°F7.7°C 79% 10.4 mph SSW16.7 kmh SSW 17.3 mph27.8 kmh 30.08 in1018.6 mb - 0.00 in0.0 mm 0.13 in3.3 mm
10:30 PM 52.0°F11.1°C 45.7°F7.6°C 79% 13.8 mph SW22.2 kmh SW 19.6 mph31.5 kmh 30.07 in1018.3 mb - 0.00 in0.0 mm 0.13 in3.3 mm
10:40 PM 51.9°F11.1°C 45.6°F7.6°C 79% 12.7 mph SW20.4 kmh SW 17.3 mph27.8 kmh 30.07 in1018.3 mb - 0.00 in0.0 mm 0.13 in3.3 mm
10:50 PM 51.8°F11.0°C 45.8°F7.7°C 80% 15.0 mph SW24.1 kmh SW 17.3 mph27.8 kmh 30.07 in1018.3 mb - 0.00 in0.0 mm 0.13 in3.3 mm
11:00 PM 51.8°F11.0°C 45.5°F7.5°C 79% 12.7 mph SW20.4 kmh SW 19.6 mph31.5 kmh 30.07 in1018.3 mb - 0.00 in0.0 mm 0.15 in3.8 mm
11:10 PM 51.9°F11.1°C 45.6°F7.6°C 79% 13.8 mph SW22.2 kmh SW 17.3 mph27.8 kmh 30.08 in1018.6 mb - 0.00 in0.0 mm 0.15 in3.8 mm
11:20 PM 51.8°F11.0°C 45.8°F7.7°C 80% 15.0 mph SW24.1 kmh SW 17.3 mph27.8 kmh 30.08 in1018.6 mb - 0.00 in0.0 mm 0.15 in3.8 mm
11:30 PM 52.0°F11.1°C 46.0°F7.8°C 80% 10.4 mph SW16.7 kmh SW 18.4 mph29.6 kmh 30.08 in1018.6 mb - 0.00 in0.0 mm 0.15 in3.8 mm
11:40 PM 52.0°F11.1°C 46.0°F7.8°C 80% 11.5 mph SW18.5 kmh SW 17.3 mph27.8 kmh 30.09 in1019.0 mb - 0.00 in0.0 mm 0.15 in3.8 mm
11:50 PM 51.7°F10.9°C 45.7°F7.6°C 80% 13.8 mph SW22.2 kmh SW 18.4 mph29.6 kmh 30.09 in1019.0 mb - 0.00 in0.0 mm 0.15 in3.8 mm